createdAt,value
2022-10-04T00:02:04.770Z,3.88
2022-10-04T00:05:03.437Z,4.40
2022-10-04T00:07:39.726Z,4.32
2022-10-04T00:13:29.288Z,4.75
2022-10-04T00:15:59.401Z,3.70
2022-10-04T00:18:39.384Z,4.80
2022-10-04T00:21:10.123Z,4.22
2022-10-04T00:23:42.387Z,4.53
2022-10-04T00:26:30.682Z,4.75
2022-10-04T00:29:26.746Z,5.40
2022-10-04T00:32:14.419Z,4.90
2022-10-04T00:34:56.157Z,6.18
2022-10-04T00:37:39.362Z,6.03
2022-10-04T00:40:18.161Z,7.93
2022-10-04T00:43:02.045Z,9.23
2022-10-04T00:51:24.675Z,10.63
2022-10-04T00:54:23.328Z,14.35
2022-10-04T00:57:04.947Z,17.05
2022-10-04T00:59:47.382Z,17.63
2022-10-04T01:02:16.933Z,19.67
2022-10-04T01:05:37.433Z,19.85
2022-10-04T01:08:56.230Z,20.85
2022-10-04T01:11:28.565Z,18.85
2022-10-04T01:14:11.626Z,25.40
2022-10-04T01:16:42.205Z,20.97
2022-10-04T01:19:27.191Z,18.33
2022-10-04T01:22:13.421Z,21.65
2022-10-04T01:24:49.497Z,18.00
2022-10-04T01:27:40.540Z,19.60
2022-10-04T01:30:29.059Z,16.30
2022-10-04T01:33:08.291Z,12.27
2022-10-04T01:35:36.923Z,10.63
2022-10-04T01:38:13.419Z,12.55
2022-10-04T01:41:00.532Z,8.60
2022-10-04T01:43:40.696Z,11.45
2022-10-04T01:46:24.247Z,10.65
2022-10-04T01:48:55.338Z,8.48
2022-10-04T01:51:31.143Z,10.00
2022-10-04T01:54:18.663Z,9.38
2022-10-04T01:57:11.233Z,12.38
2022-10-04T02:00:01.952Z,11.63
2022-10-04T02:02:36.381Z,13.15
2022-10-04T02:05:21.412Z,12.38
2022-10-04T02:07:50.670Z,14.07
2022-10-04T02:10:21.309Z,14.57
2022-10-04T02:12:55.000Z,15.23
2022-10-04T02:15:27.738Z,13.10
2022-10-04T02:17:58.587Z,12.57
2022-10-04T02:20:35.359Z,17.83
2022-10-04T02:23:13.957Z,19.20
2022-10-04T02:25:43.941Z,19.17
2022-10-04T02:28:20.151Z,19.05
2022-10-04T02:31:12.577Z,20.33
2022-10-04T02:33:46.384Z,20.77
2022-10-04T02:36:19.287Z,21.73
2022-10-04T02:39:05.600Z,18.88
2022-10-04T02:44:24.578Z,14.15
2022-10-04T02:47:09.537Z,18.00
2022-10-04T02:49:45.639Z,15.85
2022-10-04T02:52:43.535Z,15.13
2022-10-04T02:55:23.615Z,23.80
2022-10-04T02:57:55.664Z,25.75
2022-10-04T03:00:32.800Z,21.25
2022-10-04T03:03:34.752Z,24.05
2022-10-04T03:06:04.525Z,24.52
2022-10-04T03:09:00.081Z,24.98
2022-10-04T03:11:40.700Z,25.38
2022-10-04T03:14:20.550Z,27.13
2022-10-04T03:17:00.252Z,30.08
2022-10-04T03:19:36.660Z,26.90
2022-10-04T03:22:12.468Z,25.33
2022-10-04T03:24:50.575Z,23.45
2022-10-04T03:27:31.848Z,26.55
2022-10-04T03:30:10.515Z,22.77
2022-10-04T03:32:43.614Z,25.33
2022-10-04T03:35:48.814Z,18.40
2022-10-04T03:38:28.521Z,25.15
2022-10-04T03:41:02.199Z,26.17
2022-10-04T03:46:09.135Z,28.88
2022-10-04T03:48:52.386Z,32.80
2022-10-04T03:51:29.771Z,28.52
2022-10-04T03:53:58.918Z,27.55
2022-10-04T03:56:35.341Z,26.42
2022-10-04T03:59:09.500Z,28.85
2022-10-04T04:01:44.524Z,34.13
2022-10-04T04:04:44.827Z,25.17
2022-10-04T04:07:41.374Z,25.02
2022-10-04T04:10:34.404Z,22.33
2022-10-04T04:13:23.133Z,22.75
2022-10-04T04:15:50.851Z,19.35
2022-10-04T04:18:23.915Z,21.42
2022-10-04T04:21:02.442Z,21.25
2022-10-04T04:23:36.745Z,21.35
2022-10-04T04:26:37.322Z,19.95
2022-10-04T04:29:12.010Z,18.60
2022-10-04T04:31:54.946Z,15.80
2022-10-04T04:34:34.978Z,16.42
2022-10-04T04:37:13.612Z,16.50
2022-10-04T04:39:56.226Z,13.68
2022-10-04T04:42:40.255Z,14.07
2022-10-04T04:48:00.219Z,16.23
2022-10-04T04:50:36.736Z,18.00
2022-10-04T04:53:17.653Z,18.95
2022-10-04T04:56:10.194Z,21.63
2022-10-04T04:58:47.797Z,32.42
2022-10-04T05:01:28.607Z,36.03
2022-10-04T05:04:14.331Z,30.98
2022-10-04T05:07:03.005Z,35.40
2022-10-04T05:09:40.277Z,45.90
2022-10-04T05:12:10.106Z,43.78
2022-10-04T05:15:19.514Z,39.60
2022-10-04T05:17:51.038Z,39.58
2022-10-04T05:20:28.749Z,47.72
2022-10-04T05:23:16.208Z,45.88
2022-10-04T05:25:55.301Z,43.13
2022-10-04T05:28:35.509Z,37.13
2022-10-04T05:31:47.009Z,30.17
2022-10-04T05:34:27.256Z,24.70
2022-10-04T05:37:24.287Z,24.52
2022-10-04T05:40:13.485Z,20.75
2022-10-04T05:43:00.648Z,14.98
2022-10-04T05:45:31.897Z,13.35
2022-10-04T05:48:12.860Z,13.10
2022-10-04T05:50:51.420Z,10.85
2022-10-04T05:53:39.851Z,10.52
2022-10-04T05:56:42.425Z,11.05
2022-10-04T05:59:32.171Z,10.55
2022-10-04T06:02:41.225Z,9.50
2022-10-04T06:05:29.069Z,9.13
2022-10-04T06:08:35.349Z,9.68
2022-10-04T06:11:32.531Z,8.50
2022-10-04T06:14:30.910Z,8.90
2022-10-04T06:17:14.813Z,8.60
2022-10-04T06:20:04.872Z,8.25
2022-10-04T06:22:46.508Z,7.57
2022-10-04T06:25:38.924Z,6.13
2022-10-04T06:28:29.625Z,7.85
2022-10-04T06:31:26.020Z,7.45
2022-10-04T06:34:21.348Z,7.13
2022-10-04T06:37:26.543Z,6.40
2022-10-04T06:40:14.703Z,7.75
2022-10-04T06:43:02.444Z,6.30
2022-10-04T06:45:54.793Z,7.35
2022-10-04T06:48:58.996Z,8.30
2022-10-04T06:51:55.637Z,7.97
2022-10-04T06:54:55.655Z,7.43
2022-10-04T06:57:47.379Z,7.10
2022-10-04T07:00:27.740Z,6.85
2022-10-04T07:03:18.922Z,6.15
2022-10-04T07:05:59.600Z,5.88
2022-10-04T07:08:51.419Z,7.07
2022-10-04T07:11:33.030Z,8.85
2022-10-04T07:14:32.946Z,5.88
2022-10-04T07:17:14.320Z,8.38
2022-10-04T07:20:09.764Z,7.75
2022-10-04T07:23:03.289Z,6.85
2022-10-04T07:26:06.521Z,6.07
2022-10-04T07:29:03.560Z,5.95
2022-10-04T07:31:40.693Z,4.32
2022-10-04T07:34:33.076Z,4.07
2022-10-04T07:37:13.131Z,3.95
2022-10-04T07:40:05.230Z,2.85
2022-10-04T07:42:51.636Z,3.45
2022-10-04T07:45:45.006Z,3.53
2022-10-04T07:48:29.419Z,3.43
2022-10-04T07:51:22.278Z,3.53
2022-10-04T07:54:03.229Z,3.30
2022-10-04T07:56:45.810Z,3.00
2022-10-04T07:59:50.846Z,3.38
2022-10-04T08:02:55.397Z,3.28
2022-10-04T08:08:22.597Z,3.00
2022-10-04T08:11:06.706Z,3.03
2022-10-04T08:13:47.496Z,3.05
2022-10-04T08:16:31.250Z,3.40
2022-10-04T08:19:37.057Z,3.58
2022-10-04T08:23:05.871Z,3.45
2022-10-04T08:25:55.580Z,3.30
2022-10-04T08:28:57.897Z,3.47
2022-10-04T08:31:44.153Z,2.80
2022-10-04T08:34:42.459Z,2.88
2022-10-04T08:40:44.891Z,2.80
2022-10-04T08:44:02.374Z,3.40
2022-10-04T08:46:51.509Z,2.95
2022-10-04T08:49:25.715Z,2.80
2022-10-04T08:55:02.324Z,2.53
2022-10-04T08:58:07.067Z,2.58
2022-10-04T09:01:26.842Z,2.70
2022-10-04T09:04:23.234Z,2.45
2022-10-04T09:07:10.264Z,2.80
2022-10-04T09:12:42.367Z,3.15
2022-10-04T09:15:48.895Z,2.63
2022-10-04T09:18:36.320Z,2.30
2022-10-04T09:21:41.624Z,2.75
2022-10-04T09:24:50.278Z,2.45
2022-10-04T09:27:57.026Z,2.05
2022-10-04T09:30:47.852Z,2.05
2022-10-04T09:33:35.069Z,1.80
2022-10-04T09:36:17.874Z,2.25
2022-10-04T09:39:29.886Z,2.03
2022-10-04T09:42:09.739Z,2.10
2022-10-04T09:44:59.320Z,1.90
2022-10-04T09:47:45.528Z,2.10
2022-10-04T09:50:50.113Z,2.10
2022-10-04T09:56:57.459Z,1.90
2022-10-04T10:00:02.914Z,2.45
2022-10-04T10:03:16.285Z,1.90
2022-10-04T10:06:17.429Z,2.10
2022-10-04T10:09:44.358Z,2.42
2022-10-04T10:13:04.096Z,1.98
2022-10-04T10:16:01.809Z,2.30
2022-10-04T10:18:49.379Z,2.20
2022-10-04T10:21:59.761Z,2.00
2022-10-04T10:24:57.453Z,2.00
2022-10-04T10:28:03.862Z,2.13
2022-10-04T10:31:08.766Z,2.03
2022-10-04T10:34:09.822Z,1.85
2022-10-04T10:37:05.238Z,2.17
2022-10-04T10:40:05.597Z,2.08
2022-10-04T10:43:04.773Z,2.28
2022-10-04T10:45:51.754Z,2.10
2022-10-04T10:48:46.717Z,2.35
2022-10-04T10:52:32.027Z,2.03
2022-10-04T10:55:34.484Z,1.80
2022-10-04T10:58:47.025Z,1.95
2022-10-04T11:01:37.362Z,2.40
2022-10-04T11:04:46.209Z,1.83
2022-10-04T11:07:55.235Z,2.10
2022-10-04T11:11:02.552Z,2.20
2022-10-04T11:13:55.268Z,3.17
2022-10-04T11:17:01.375Z,6.90
2022-10-04T11:20:11.235Z,3.53
2022-10-04T11:23:20.182Z,2.88
2022-10-04T11:25:56.315Z,2.50
2022-10-04T11:29:00.434Z,2.20
2022-10-04T11:31:59.837Z,1.48
2022-10-04T11:34:51.003Z,1.33
2022-10-04T11:37:49.208Z,1.52
2022-10-04T11:40:46.176Z,1.45
2022-10-04T11:43:41.571Z,1.40
2022-10-04T11:46:27.450Z,1.55
2022-10-04T11:48:59.997Z,1.48
2022-10-04T11:51:56.553Z,1.50
2022-10-04T11:54:40.259Z,1.60
2022-10-04T11:57:37.722Z,1.23
2022-10-04T12:00:16.871Z,1.70
2022-10-04T12:03:19.224Z,1.40
2022-10-04T12:06:31.556Z,1.30
2022-10-04T12:09:29.884Z,1.70
2022-10-04T12:12:39.675Z,3.15
2022-10-04T12:15:22.005Z,2.90
2022-10-04T12:18:10.415Z,1.35
2022-10-04T12:21:22.042Z,1.20
2022-10-04T12:24:08.202Z,1.50
2022-10-04T12:27:43.365Z,1.35
2022-10-04T12:30:46.748Z,1.35
2022-10-04T12:33:23.763Z,1.65
2022-10-04T12:36:26.791Z,1.52
2022-10-04T12:39:08.574Z,1.33
2022-10-04T12:41:52.839Z,1.70
2022-10-04T12:44:31.457Z,1.75
2022-10-04T12:47:25.507Z,1.15
2022-10-04T12:50:20.203Z,1.00
2022-10-04T12:53:09.310Z,1.63
2022-10-04T12:56:16.086Z,1.23
2022-10-04T12:59:24.028Z,1.25
2022-10-04T13:02:03.937Z,1.30
2022-10-04T13:04:52.087Z,1.15
2022-10-04T13:07:49.597Z,1.38
2022-10-04T13:10:37.924Z,1.13
2022-10-04T13:13:28.851Z,0.90
2022-10-04T13:19:58.259Z,1.05
2022-10-04T13:22:55.442Z,1.33
2022-10-04T13:25:59.932Z,1.52
2022-10-04T13:28:48.628Z,1.33
2022-10-04T13:31:51.461Z,1.10
2022-10-04T13:34:51.804Z,1.10
2022-10-04T13:37:59.710Z,1.27
2022-10-04T13:41:13.144Z,1.25
2022-10-04T13:44:10.361Z,0.93
2022-10-04T13:46:57.306Z,1.10
2022-10-04T13:49:42.536Z,0.90
2022-10-04T13:53:06.975Z,1.15
2022-10-04T13:56:32.725Z,1.33
2022-10-04T13:59:34.618Z,2.80
2022-10-04T14:02:26.524Z,1.50
2022-10-04T14:05:18.229Z,1.73
2022-10-04T14:08:06.470Z,1.48
2022-10-04T14:11:04.564Z,1.55
2022-10-04T14:13:43.119Z,1.83
2022-10-04T14:16:35.975Z,1.63
2022-10-04T14:19:48.824Z,1.60
2022-10-04T14:22:34.011Z,1.08
2022-10-04T14:25:42.097Z,1.20
2022-10-04T14:31:49.833Z,1.80
2022-10-04T14:34:40.458Z,1.58
2022-10-04T14:37:39.385Z,2.00
2022-10-04T14:40:43.546Z,1.42
2022-10-04T14:43:30.021Z,1.63
2022-10-04T14:46:18.005Z,1.10
2022-10-04T14:49:16.368Z,1.77
2022-10-04T14:51:50.125Z,1.60
2022-10-04T14:57:15.128Z,1.70
2022-10-04T15:00:09.836Z,1.70
2022-10-04T15:03:05.244Z,1.25
2022-10-04T15:05:54.883Z,1.52
2022-10-04T15:08:39.602Z,1.50
2022-10-04T15:11:50.434Z,1.08
2022-10-04T15:14:47.188Z,1.30
2022-10-04T15:17:30.310Z,2.10
2022-10-04T15:20:08.647Z,1.92
2022-10-04T15:22:57.667Z,1.65
2022-10-04T15:25:48.307Z,1.63
2022-10-04T15:28:48.545Z,3.67
2022-10-04T15:31:39.465Z,3.55
2022-10-04T15:34:26.437Z,2.05
2022-10-04T15:37:20.138Z,2.55
2022-10-04T15:40:44.136Z,1.98
2022-10-04T15:43:29.292Z,1.42
2022-10-04T15:46:17.201Z,1.83
2022-10-04T15:49:17.783Z,1.65
2022-10-04T15:52:17.132Z,1.85
2022-10-04T15:55:19.246Z,1.90
2022-10-04T15:58:09.660Z,2.17
2022-10-04T16:01:13.264Z,2.00
2022-10-04T16:03:59.124Z,2.07
2022-10-04T16:06:45.463Z,2.15
2022-10-04T16:09:37.021Z,2.03
2022-10-04T16:12:37.514Z,2.10
2022-10-04T16:15:19.493Z,2.53
2022-10-04T16:18:15.164Z,3.13
2022-10-04T16:21:06.258Z,3.08
2022-10-04T16:23:40.049Z,4.18
2022-10-04T16:26:27.365Z,4.90
2022-10-04T16:29:38.545Z,4.72
2022-10-04T16:32:15.828Z,4.00
2022-10-04T16:35:01.480Z,4.43
2022-10-04T16:37:46.490Z,4.60
2022-10-04T16:40:33.743Z,4.22
2022-10-04T16:43:28.518Z,4.22
2022-10-04T16:46:23.234Z,3.85
2022-10-04T16:49:13.073Z,4.43
2022-10-04T16:52:08.222Z,4.65
2022-10-04T16:55:02.212Z,5.15
2022-10-04T16:57:41.280Z,4.80
2022-10-04T17:00:38.449Z,5.43
2022-10-04T17:03:22.601Z,5.38
2022-10-04T17:06:13.475Z,6.10
2022-10-04T17:09:23.110Z,5.60
2022-10-04T17:12:43.058Z,7.25
2022-10-04T17:15:30.908Z,8.38
2022-10-04T17:18:22.976Z,7.80
2022-10-04T17:21:16.235Z,7.25
2022-10-04T17:23:55.732Z,7.20
2022-10-04T17:27:05.585Z,7.40
2022-10-04T17:30:11.965Z,7.07
2022-10-04T17:33:15.478Z,6.45
2022-10-04T17:36:00.260Z,7.20
2022-10-04T17:39:00.708Z,7.65
2022-10-04T17:42:04.067Z,7.07
2022-10-04T17:45:07.923Z,7.07
2022-10-04T17:48:15.005Z,6.68
2022-10-04T17:51:13.726Z,7.18
2022-10-04T17:54:14.734Z,7.85
2022-10-04T17:57:15.322Z,8.70
2022-10-04T17:59:56.155Z,7.97
2022-10-04T18:03:10.676Z,8.75
2022-10-04T18:05:57.264Z,8.68
2022-10-04T18:08:55.107Z,8.43
2022-10-04T18:12:00.111Z,9.88
2022-10-04T18:14:35.876Z,14.18
2022-10-04T18:17:19.359Z,20.20
2022-10-04T18:20:26.347Z,16.95
2022-10-04T18:23:29.414Z,12.05
2022-10-04T18:26:18.299Z,11.10
2022-10-04T18:28:59.616Z,11.65
2022-10-04T18:31:41.395Z,11.40
2022-10-04T18:34:18.876Z,13.50
2022-10-04T18:36:54.121Z,12.27
2022-10-04T18:39:29.910Z,11.25
2022-10-04T18:42:28.210Z,11.48
2022-10-04T18:45:25.986Z,11.57
2022-10-04T18:48:21.966Z,13.27
2022-10-04T18:51:26.245Z,14.48
2022-10-04T18:54:16.885Z,12.85
2022-10-04T18:57:24.166Z,13.25
2022-10-04T19:00:33.127Z,14.13
2022-10-04T19:03:18.776Z,12.82
2022-10-04T19:06:11.713Z,15.00
2022-10-04T19:09:16.194Z,13.52
2022-10-04T19:12:10.135Z,12.43
2022-10-04T19:15:03.350Z,14.40
2022-10-04T19:17:50.278Z,13.23
2022-10-04T19:20:42.692Z,13.90
2022-10-04T19:23:40.409Z,16.08
2022-10-04T19:26:38.801Z,16.63
2022-10-04T19:29:08.558Z,17.88
2022-10-04T19:32:01.534Z,16.10
2022-10-04T19:35:10.059Z,16.55
2022-10-04T19:38:06.217Z,15.85
2022-10-04T19:40:47.746Z,17.75
2022-10-04T19:43:48.404Z,18.42
2022-10-04T19:46:53.458Z,19.30
2022-10-04T19:49:53.830Z,19.33
2022-10-04T19:56:01.455Z,20.35
2022-10-04T19:58:40.332Z,22.75
2022-10-04T20:01:17.940Z,23.30
2022-10-04T20:04:17.288Z,25.80
2022-10-04T20:07:27.189Z,25.48
2022-10-04T20:10:12.385Z,28.48
2022-10-04T20:13:32.408Z,24.50
2022-10-04T20:16:06.972Z,27.58
2022-10-04T20:19:02.194Z,27.20
2022-10-04T20:21:39.556Z,27.77
2022-10-04T20:24:39.525Z,28.70
2022-10-04T20:27:36.675Z,30.27
2022-10-04T20:30:19.595Z,27.20
2022-10-04T20:33:08.610Z,27.10
2022-10-04T20:36:24.870Z,27.65
2022-10-04T20:39:09.119Z,26.73
2022-10-04T20:42:21.582Z,29.67
2022-10-04T20:45:10.621Z,29.02
2022-10-04T20:47:54.921Z,31.23
2022-10-04T20:50:37.445Z,33.05
2022-10-04T20:53:27.459Z,35.53
2022-10-04T20:56:24.785Z,39.03
2022-10-04T20:58:59.728Z,39.83
2022-10-04T21:01:49.683Z,39.05
2022-10-04T21:04:44.434Z,41.58
2022-10-04T21:07:24.447Z,37.92
2022-10-04T21:10:07.457Z,42.58
2022-10-04T21:12:50.030Z,44.90
2022-10-04T21:15:33.019Z,40.50
2022-10-04T21:18:12.039Z,41.95
2022-10-04T21:20:54.762Z,41.00
2022-10-04T21:23:38.158Z,44.92
2022-10-04T21:26:26.631Z,42.50
2022-10-04T21:29:11.273Z,41.33
2022-10-04T21:31:53.704Z,42.60
2022-10-04T21:34:48.699Z,41.35
2022-10-04T21:37:38.217Z,47.72
2022-10-04T21:40:08.784Z,49.50
2022-10-04T21:42:39.392Z,48.17
2022-10-04T21:45:12.417Z,42.75
2022-10-04T21:47:47.656Z,44.83
2022-10-04T21:50:22.917Z,43.50
2022-10-04T21:53:01.094Z,45.75
2022-10-04T21:55:34.280Z,44.90
2022-10-04T21:58:22.923Z,50.83
2022-10-04T22:01:00.009Z,50.05
2022-10-04T22:03:35.167Z,48.72
2022-10-04T22:06:10.103Z,49.42
2022-10-04T22:08:53.818Z,48.20
2022-10-04T22:11:32.183Z,47.60
2022-10-04T22:14:09.372Z,45.25
2022-10-04T22:16:43.752Z,51.67
2022-10-04T22:19:19.213Z,51.88
2022-10-04T22:22:01.282Z,49.97
2022-10-04T22:24:41.643Z,47.50
2022-10-04T22:27:20.083Z,46.10
2022-10-04T22:29:57.995Z,44.92
2022-10-04T22:32:37.394Z,45.70
2022-10-04T22:35:14.474Z,49.78
2022-10-04T22:37:48.609Z,49.45
2022-10-04T22:40:31.739Z,54.08
2022-10-04T22:43:14.319Z,50.47
2022-10-04T22:48:49.173Z,49.25
2022-10-04T22:51:27.267Z,57.10
2022-10-04T22:54:00.360Z,51.95
2022-10-04T22:56:35.470Z,49.60
2022-10-04T22:59:13.163Z,53.00
2022-10-04T23:01:48.504Z,57.08
2022-10-04T23:04:25.292Z,50.65
2022-10-04T23:07:01.287Z,52.70
2022-10-04T23:09:37.228Z,52.53
2022-10-04T23:12:12.366Z,57.25
2022-10-04T23:14:50.440Z,55.08
2022-10-04T23:17:25.231Z,57.17
2022-10-04T23:20:09.224Z,51.75
2022-10-04T23:25:30.349Z,50.90
2022-10-04T23:28:13.314Z,51.13
2022-10-04T23:30:45.545Z,50.83
2022-10-04T23:33:22.638Z,56.22
2022-10-04T23:35:57.037Z,53.78
2022-10-04T23:38:41.225Z,49.40
2022-10-04T23:41:21.752Z,52.30
2022-10-04T23:44:02.814Z,51.40
2022-10-04T23:46:37.995Z,47.72
2022-10-04T23:49:18.137Z,52.38
2022-10-04T23:51:56.659Z,47.92
2022-10-04T23:54:29.384Z,54.90
2022-10-04T23:57:06.718Z,55.20
